createdAt,value
2018-11-29T00:00:21.911Z,46.10
2018-11-29T00:02:50.837Z,46.07
2018-11-29T00:05:19.081Z,43.30
2018-11-29T00:07:47.461Z,42.07
2018-11-29T00:10:15.748Z,43.00
2018-11-29T00:12:43.930Z,44.77
2018-11-29T00:15:12.878Z,40.80
2018-11-29T00:17:41.070Z,39.43
2018-11-29T00:20:12.231Z,39.42
2018-11-29T00:22:40.592Z,37.27
2018-11-29T00:25:09.902Z,36.17
2018-11-29T00:27:38.118Z,36.73
2018-11-29T00:30:25.576Z,36.13
2018-11-29T00:32:54.595Z,37.67
2018-11-29T00:35:22.775Z,37.03
2018-11-29T00:37:50.994Z,35.50
2018-11-29T00:40:20.897Z,39.75
2018-11-29T00:42:49.045Z,38.80
2018-11-29T00:45:21.404Z,38.77
2018-11-29T00:47:49.719Z,37.10
2018-11-29T00:50:18.566Z,39.38
2018-11-29T00:52:47.576Z,41.77
2018-11-29T00:55:17.005Z,44.57
2018-11-29T00:57:45.208Z,44.47
2018-11-29T01:00:17.418Z,50.20
2018-11-29T01:02:45.629Z,42.93
2018-11-29T01:05:13.918Z,41.77
2018-11-29T01:07:42.183Z,40.03
2018-11-29T01:10:13.249Z,43.93
2018-11-29T01:12:41.681Z,40.20
2018-11-29T01:15:12.036Z,39.42
2018-11-29T01:17:40.308Z,36.93
2018-11-29T01:20:10.567Z,38.57
2018-11-29T01:22:38.804Z,34.37
2018-11-29T01:25:08.669Z,31.43
2018-11-29T01:27:36.926Z,33.10
2018-11-29T01:30:09.176Z,36.20
2018-11-29T01:32:37.547Z,33.00
2018-11-29T01:35:06.582Z,33.70
2018-11-29T01:37:34.831Z,34.58
2018-11-29T01:40:03.081Z,36.03
2018-11-29T01:42:31.318Z,36.63
2018-11-29T01:44:59.590Z,38.77
2018-11-29T01:47:27.842Z,34.13
2018-11-29T01:49:56.030Z,37.33
2018-11-29T01:52:24.290Z,39.67
2018-11-29T01:54:52.538Z,35.05
2018-11-29T01:57:20.781Z,38.73
2018-11-29T01:59:49.014Z,36.30
2018-11-29T02:02:17.489Z,44.65
2018-11-29T02:04:45.702Z,40.20
2018-11-29T02:07:13.987Z,45.57
2018-11-29T02:09:42.460Z,42.25
2018-11-29T02:12:10.705Z,42.17
2018-11-29T02:14:38.955Z,49.03
2018-11-29T02:17:07.220Z,45.17
2018-11-29T02:19:35.558Z,48.73
2018-11-29T02:22:03.827Z,45.90
2018-11-29T02:24:32.073Z,53.00
2018-11-29T02:27:00.398Z,49.60
2018-11-29T02:29:28.668Z,45.20
2018-11-29T02:31:57.220Z,48.23
2018-11-29T02:34:25.668Z,38.40
2018-11-29T02:36:54.176Z,42.53
2018-11-29T02:39:22.609Z,39.03
2018-11-29T02:41:51.009Z,33.75
2018-11-29T02:44:19.416Z,25.37
2018-11-29T02:46:47.843Z,25.40
2018-11-29T02:49:16.284Z,18.50
2018-11-29T02:51:44.648Z,22.87
2018-11-29T02:54:13.055Z,24.70
2018-11-29T02:56:41.477Z,22.37
2018-11-29T02:59:09.883Z,26.67
2018-11-29T03:01:38.276Z,25.20
2018-11-29T03:04:06.651Z,24.73
2018-11-29T03:06:35.069Z,26.45
2018-11-29T03:09:03.925Z,28.83
2018-11-29T03:11:32.417Z,29.03
2018-11-29T03:14:00.791Z,28.50
2018-11-29T03:16:29.376Z,26.67
2018-11-29T03:18:57.789Z,27.93
2018-11-29T03:21:26.318Z,28.00
2018-11-29T03:23:54.740Z,27.40
2018-11-29T03:26:23.269Z,28.43
2018-11-29T03:28:51.704Z,31.87
2018-11-29T03:31:20.119Z,35.07
2018-11-29T03:33:48.495Z,32.90
2018-11-29T03:36:16.985Z,37.70
2018-11-29T03:38:45.485Z,35.28
2018-11-29T03:41:13.956Z,35.57
2018-11-29T03:43:42.275Z,37.35
2018-11-29T03:46:10.633Z,36.53
2018-11-29T03:48:39.090Z,40.80
2018-11-29T03:51:07.557Z,40.40
2018-11-29T03:53:35.918Z,37.93
2018-11-29T03:56:04.389Z,39.00
2018-11-29T03:58:32.890Z,41.63
2018-11-29T04:01:01.380Z,43.03
2018-11-29T04:03:29.808Z,38.80
2018-11-29T04:05:58.225Z,52.40
2018-11-29T04:08:26.595Z,43.00
2018-11-29T04:10:55.039Z,44.27
2018-11-29T04:13:23.423Z,46.58
2018-11-29T04:15:51.795Z,44.13
2018-11-29T04:18:20.180Z,47.90
2018-11-29T04:20:48.743Z,43.83
2018-11-29T04:23:17.117Z,48.55
2018-11-29T04:25:45.472Z,44.80
2018-11-29T04:28:13.870Z,52.38
2018-11-29T04:30:42.493Z,49.00
2018-11-29T04:33:10.894Z,51.70
2018-11-29T04:35:42.859Z,46.33
2018-11-29T04:38:11.287Z,46.97
2018-11-29T04:40:39.795Z,49.63
2018-11-29T04:43:08.277Z,52.90
2018-11-29T04:46:45.197Z,48.40
2018-11-29T04:49:13.602Z,51.23
2018-11-29T04:51:42.116Z,118.45
2018-11-29T04:54:10.751Z,54.73
2018-11-29T04:56:39.351Z,51.37
2018-11-29T04:59:07.934Z,52.07
2018-11-29T05:01:36.593Z,48.87
2018-11-29T05:04:05.091Z,44.30
2018-11-29T05:06:33.563Z,46.37
2018-11-29T05:09:02.043Z,43.33
2018-11-29T05:11:30.516Z,42.47
2018-11-29T05:13:58.899Z,38.28
2018-11-29T05:16:27.198Z,39.77
2018-11-29T05:18:55.602Z,41.03
2018-11-29T05:21:24.048Z,34.47
2018-11-29T05:23:52.537Z,35.48
2018-11-29T05:26:20.955Z,33.70
2018-11-29T05:28:49.379Z,31.25
2018-11-29T05:31:17.948Z,36.67
2018-11-29T05:33:46.430Z,33.83
2018-11-29T05:36:14.997Z,35.20
2018-11-29T05:38:43.375Z,35.70
2018-11-29T05:41:11.843Z,35.50
2018-11-29T05:43:40.181Z,32.00
2018-11-29T05:46:08.548Z,31.47
2018-11-29T05:48:36.963Z,31.00
2018-11-29T05:51:05.434Z,30.83
2018-11-29T05:53:33.879Z,32.67
2018-11-29T05:56:02.287Z,32.27
2018-11-29T05:58:30.701Z,32.13
2018-11-29T06:01:01.898Z,30.83
2018-11-29T06:03:30.555Z,32.13
2018-11-29T06:05:58.982Z,33.78
2018-11-29T06:08:30.870Z,32.53
2018-11-29T06:10:59.316Z,34.87
2018-11-29T06:13:27.862Z,28.80
2018-11-29T06:15:56.466Z,27.67
2018-11-29T06:18:24.862Z,31.93
2018-11-29T06:20:53.364Z,37.43
2018-11-29T06:23:21.842Z,35.33
2018-11-29T06:25:50.322Z,33.93
2018-11-29T06:28:18.834Z,32.05
2018-11-29T06:30:47.347Z,29.20
2018-11-29T06:33:15.923Z,35.78
2018-11-29T06:35:44.616Z,35.27
2018-11-29T06:38:13.196Z,34.13
2018-11-29T06:40:41.702Z,39.90
2018-11-29T06:43:10.168Z,42.30
2018-11-29T06:45:38.590Z,37.40
2018-11-29T06:48:07.126Z,41.07
2018-11-29T06:50:35.554Z,37.88
2018-11-29T06:53:04.388Z,41.53
2018-11-29T06:55:32.843Z,38.30
2018-11-29T06:58:01.232Z,35.88
2018-11-29T07:00:32.676Z,41.20
2018-11-29T07:03:01.049Z,39.87
2018-11-29T07:05:29.507Z,36.45
2018-11-29T07:07:58.161Z,34.53
2018-11-29T07:10:31.859Z,32.95
2018-11-29T07:13:00.453Z,36.60
2018-11-29T07:15:28.968Z,40.35
2018-11-29T07:17:57.406Z,36.50
2018-11-29T07:20:25.810Z,40.25
2018-11-29T07:22:54.276Z,42.63
2018-11-29T07:25:22.709Z,36.80
2018-11-29T07:27:51.131Z,38.57
2018-11-29T07:30:19.603Z,36.83
2018-11-29T07:32:48.004Z,38.53
2018-11-29T07:35:16.906Z,37.30
2018-11-29T07:37:45.283Z,38.78
2018-11-29T07:40:16.194Z,35.93
2018-11-29T07:42:45.570Z,39.73
2018-11-29T07:45:15.724Z,47.57
2018-11-29T07:47:44.414Z,40.60
2018-11-29T07:50:20.958Z,45.88
2018-11-29T07:52:49.449Z,47.13
2018-11-29T07:55:19.987Z,45.83
2018-11-29T07:57:49.860Z,45.40
2018-11-29T08:00:18.389Z,51.40
2018-11-29T08:02:47.134Z,43.50
2018-11-29T08:05:15.956Z,43.78
2018-11-29T08:07:47.690Z,46.00
2018-11-29T08:10:31.139Z,49.40
2018-11-29T08:13:03.859Z,54.63
2018-11-29T08:15:32.596Z,57.03
2018-11-29T08:18:01.108Z,52.98
2018-11-29T08:20:29.601Z,52.97
2018-11-29T08:22:58.114Z,53.55
2018-11-29T08:25:26.631Z,48.93
2018-11-29T08:27:55.111Z,45.58
2018-11-29T08:30:23.652Z,40.03
2018-11-29T08:32:55.659Z,45.28
2018-11-29T08:35:24.017Z,49.03
2018-11-29T08:37:52.364Z,42.85
2018-11-29T08:40:21.253Z,44.20
2018-11-29T08:42:49.617Z,44.53
2018-11-29T08:45:18.050Z,40.38
2018-11-29T08:47:46.598Z,41.80
2018-11-29T08:50:15.384Z,39.38
2018-11-29T08:52:44.586Z,35.83
2018-11-29T08:55:14.822Z,34.03
2018-11-29T08:57:43.149Z,34.50
2018-11-29T09:00:13.525Z,34.60
2018-11-29T09:02:41.880Z,28.53
2018-11-29T09:05:11.018Z,25.02
2018-11-29T09:07:39.403Z,20.75
2018-11-29T09:10:16.967Z,21.23
2018-11-29T09:12:45.255Z,22.33
2018-11-29T09:15:14.493Z,21.93
2018-11-29T09:17:42.904Z,20.80
2018-11-29T09:20:14.058Z,20.57
2018-11-29T09:22:42.612Z,21.13
2018-11-29T09:25:13.333Z,23.83
2018-11-29T09:27:41.812Z,23.10
2018-11-29T09:30:14.252Z,27.80
2018-11-29T09:32:43.121Z,29.00
2018-11-29T09:35:11.566Z,33.47
2018-11-29T09:37:40.055Z,31.52
2018-11-29T09:40:15.281Z,28.73
2018-11-29T09:42:43.800Z,28.93
2018-11-29T09:45:16.288Z,32.13
2018-11-29T09:47:45.705Z,28.17
2018-11-29T09:50:15.130Z,28.23
2018-11-29T09:52:43.571Z,31.67
2018-11-29T09:55:13.053Z,24.27
2018-11-29T09:57:41.893Z,29.10
2018-11-29T10:00:27.079Z,26.23
2018-11-29T10:02:59.479Z,29.03
2018-11-29T10:05:27.966Z,27.67
2018-11-29T10:07:56.401Z,28.38
2018-11-29T10:10:24.959Z,29.43
2018-11-29T10:12:53.524Z,27.55
2018-11-29T10:15:22.071Z,26.33
2018-11-29T10:17:50.689Z,29.18
2018-11-29T10:20:19.190Z,27.47
2018-11-29T10:22:47.964Z,26.07
2018-11-29T10:25:16.413Z,23.90
2018-11-29T10:27:47.622Z,25.97
2018-11-29T10:30:18.752Z,25.80
2018-11-29T10:32:47.179Z,26.07
2018-11-29T10:35:15.620Z,24.10
2018-11-29T10:37:44.145Z,24.80
2018-11-29T10:40:12.719Z,24.82
2018-11-29T10:42:41.256Z,26.43
2018-11-29T10:45:12.096Z,24.67
2018-11-29T10:47:41.194Z,28.60
2018-11-29T10:50:12.067Z,30.07
2018-11-29T10:52:40.572Z,28.20
2018-11-29T10:55:11.859Z,28.38
2018-11-29T10:57:40.725Z,30.10
2018-11-29T11:00:29.024Z,32.33
2018-11-29T11:03:33.208Z,30.80
2018-11-29T11:06:01.812Z,31.30
2018-11-29T11:08:30.364Z,31.82
2018-11-29T11:10:59.192Z,28.60
2018-11-29T11:13:27.599Z,25.00
2018-11-29T11:15:56.020Z,26.00
2018-11-29T11:18:24.416Z,25.70
2018-11-29T11:20:52.979Z,27.37
2018-11-29T11:23:21.530Z,28.47
2018-11-29T11:25:50.092Z,24.60
2018-11-29T11:28:18.562Z,21.03
2018-11-29T11:30:47.103Z,18.37
2018-11-29T11:33:15.811Z,17.30
2018-11-29T11:35:44.370Z,16.43
2018-11-29T11:38:12.950Z,16.57
2018-11-29T11:40:41.495Z,16.00
2018-11-29T11:43:10.197Z,19.00
2018-11-29T11:45:38.684Z,16.80
2018-11-29T11:48:07.514Z,17.50
2018-11-29T11:50:36.587Z,14.80
2018-11-29T11:53:05.794Z,17.97
2018-11-29T11:55:34.328Z,16.37
2018-11-29T11:58:02.944Z,15.43
2018-11-29T12:00:31.885Z,16.23
2018-11-29T12:03:03.812Z,13.60
2018-11-29T12:05:32.349Z,14.90
2018-11-29T12:08:00.912Z,16.48
2018-11-29T12:10:29.605Z,16.60
2018-11-29T12:12:58.259Z,13.60
2018-11-29T12:15:26.846Z,14.90
2018-11-29T12:17:55.480Z,14.33
2018-11-29T12:20:25.061Z,14.18
2018-11-29T12:22:54.703Z,13.90
2018-11-29T12:25:23.383Z,14.10
2018-11-29T12:27:52.439Z,16.17
2018-11-29T12:30:24.115Z,16.13
2018-11-29T12:32:58.974Z,12.80
2018-11-29T12:35:27.467Z,13.47
2018-11-29T12:37:55.913Z,13.08
2018-11-29T12:40:24.368Z,13.73
2018-11-29T12:42:52.815Z,17.98
2018-11-29T12:45:21.273Z,20.43
2018-11-29T12:47:49.728Z,25.97
2018-11-29T12:50:20.141Z,31.07
2018-11-29T12:52:48.602Z,30.43
2018-11-29T12:55:18.016Z,27.93
2018-11-29T12:57:46.459Z,26.47
2018-11-29T13:00:16.826Z,31.55
2018-11-29T13:02:52.311Z,35.47
2018-11-29T13:05:20.851Z,33.73
2018-11-29T13:07:49.333Z,28.30
2018-11-29T13:10:19.984Z,34.90
2018-11-29T13:12:48.644Z,29.07
2018-11-29T13:15:18.379Z,27.65
2018-11-29T13:17:46.891Z,28.53
2018-11-29T13:20:17.183Z,29.02
2018-11-29T13:22:45.718Z,32.47
2018-11-29T13:25:19.181Z,31.27
2018-11-29T13:27:47.926Z,31.33
2018-11-29T13:30:19.211Z,29.77
2018-11-29T13:32:48.351Z,28.13
2018-11-29T13:35:21.310Z,23.80
2018-11-29T13:37:54.144Z,29.20
2018-11-29T13:40:22.793Z,25.67
2018-11-29T13:42:51.362Z,27.07
2018-11-29T13:45:20.047Z,35.48
2018-11-29T13:47:48.728Z,32.10
2018-11-29T13:50:17.897Z,32.47
2018-11-29T13:52:46.758Z,28.00
2018-11-29T13:55:16.234Z,31.10
2018-11-29T13:57:47.680Z,28.60
2018-11-29T14:00:18.351Z,25.27
2018-11-29T14:02:49.087Z,31.33
2018-11-29T14:05:17.646Z,30.30
2018-11-29T14:07:46.187Z,24.07
2018-11-29T14:10:15.780Z,23.60
2018-11-29T14:12:44.942Z,18.93
2018-11-29T14:15:20.134Z,13.80
2018-11-29T14:17:48.661Z,16.13
2018-11-29T14:20:17.196Z,14.60
2018-11-29T14:22:45.792Z,23.90
2018-11-29T14:25:15.290Z,16.87
2018-11-29T14:27:45.105Z,13.78
2018-11-29T14:30:29.107Z,13.30
2018-11-29T14:32:58.743Z,13.80
2018-11-29T14:35:27.237Z,12.10
2018-11-29T14:37:56.067Z,11.55
2018-11-29T14:40:25.532Z,11.20
2018-11-29T14:42:54.254Z,15.53
2018-11-29T14:45:23.804Z,12.18
2018-11-29T14:47:52.269Z,12.30
2018-11-29T14:50:25.076Z,14.33
2018-11-29T14:52:53.590Z,11.77
2018-11-29T14:55:22.237Z,9.60
2018-11-29T14:57:50.979Z,12.67
2018-11-29T15:00:19.510Z,11.70
2018-11-29T15:02:49.016Z,12.68
2018-11-29T15:05:18.586Z,14.83
2018-11-29T15:07:47.299Z,12.83
2018-11-29T15:10:15.918Z,13.32
2018-11-29T15:12:44.560Z,12.07
2018-11-29T15:15:13.686Z,11.60
2018-11-29T15:17:42.986Z,12.03
2018-11-29T15:20:13.034Z,9.65
2018-11-29T15:22:41.683Z,11.93
2018-11-29T15:25:10.246Z,13.10
2018-11-29T15:27:38.936Z,13.17
2018-11-29T15:30:12.321Z,11.40
2018-11-29T15:32:40.922Z,12.80
2018-11-29T15:35:09.547Z,11.48
2018-11-29T15:37:37.966Z,11.77
2018-11-29T15:40:12.756Z,14.67
2018-11-29T15:42:41.243Z,13.47
2018-11-29T15:45:17.122Z,13.90
2018-11-29T15:47:45.859Z,13.23
2018-11-29T15:50:15.549Z,12.43
2018-11-29T15:52:44.219Z,11.23
2018-11-29T15:55:16.528Z,11.97
2018-11-29T15:57:46.113Z,12.63
2018-11-29T16:00:17.721Z,12.53
2018-11-29T16:02:47.169Z,13.70
2018-11-29T16:05:15.545Z,12.77
2018-11-29T16:07:44.050Z,13.03
2018-11-29T16:10:14.435Z,13.80
2018-11-29T16:12:42.941Z,14.00
2018-11-29T16:15:13.703Z,13.32
2018-11-29T16:17:42.312Z,13.90
2018-11-29T16:20:18.907Z,13.35
2018-11-29T16:22:47.418Z,13.23
2018-11-29T16:25:15.956Z,13.08
2018-11-29T16:27:44.555Z,14.57
2018-11-29T16:30:53.467Z,11.35
2018-11-29T16:33:31.392Z,12.27
2018-11-29T16:35:59.938Z,13.00
2018-11-29T16:38:28.551Z,11.20
2018-11-29T16:40:57.074Z,11.60
2018-11-29T16:43:25.807Z,11.23
2018-11-29T16:45:54.285Z,11.88
2018-11-29T16:48:22.826Z,11.33
2018-11-29T16:50:51.411Z,11.55
2018-11-29T16:53:20.135Z,9.03
2018-11-29T16:55:48.676Z,12.93
2018-11-29T16:58:19.117Z,10.72
2018-11-29T17:00:47.588Z,11.23
2018-11-29T17:03:16.170Z,13.65
2018-11-29T17:05:44.658Z,10.93
2018-11-29T17:08:13.117Z,12.82
2018-11-29T17:10:41.586Z,11.60
2018-11-29T17:13:18.793Z,12.98
2018-11-29T17:15:47.331Z,11.33
2018-11-29T17:18:15.977Z,17.02
2018-11-29T17:20:44.459Z,12.73
2018-11-29T17:23:13.179Z,9.67
2018-11-29T17:25:41.603Z,12.60
2018-11-29T17:28:10.121Z,11.90
2018-11-29T17:30:38.648Z,11.08
2018-11-29T17:33:08.376Z,13.13
2018-11-29T17:35:37.031Z,13.30
2018-11-29T17:38:05.959Z,13.00
2018-11-29T17:40:34.752Z,13.03
2018-11-29T17:43:03.214Z,15.75
2018-11-29T17:45:31.795Z,15.03
2018-11-29T17:48:05.300Z,11.97
2018-11-29T17:50:36.979Z,15.30
2018-11-29T17:53:06.177Z,13.53
2018-11-29T17:55:34.857Z,14.90
2018-11-29T17:58:05.563Z,16.50
2018-11-29T18:00:34.354Z,15.10
2018-11-29T18:03:02.922Z,13.20
2018-11-29T18:05:31.349Z,13.30
2018-11-29T18:07:59.847Z,17.77
2018-11-29T18:10:30.274Z,17.00
2018-11-29T18:13:00.671Z,19.10
2018-11-29T18:15:30.720Z,15.10
2018-11-29T18:17:59.208Z,14.53
2018-11-29T18:20:28.258Z,16.67
2018-11-29T18:22:56.973Z,14.95
2018-11-29T18:25:25.631Z,16.55
2018-11-29T18:27:54.338Z,20.93
2018-11-29T18:30:23.494Z,20.70
2018-11-29T18:32:52.092Z,16.67
2018-11-29T18:35:21.001Z,17.05
2018-11-29T18:37:50.170Z,18.17
2018-11-29T18:40:19.396Z,18.32
2018-11-29T18:42:57.241Z,18.67
2018-11-29T18:45:25.815Z,17.67
2018-11-29T18:47:54.739Z,15.75
2018-11-29T18:50:24.000Z,17.37
2018-11-29T18:52:53.280Z,21.70
2018-11-29T18:55:23.257Z,19.63
2018-11-29T18:57:52.069Z,20.10
2018-11-29T19:00:22.948Z,19.17
2018-11-29T19:02:56.733Z,24.33
2018-11-29T19:05:20.341Z,19.25
2018-11-29T19:07:49.092Z,27.65
2018-11-29T19:10:18.185Z,23.97
2018-11-29T19:12:49.314Z,24.77
2018-11-29T19:15:18.108Z,21.90
2018-11-29T19:17:51.168Z,24.60
2018-11-29T19:20:19.894Z,21.30
2018-11-29T19:22:48.457Z,23.97
2018-11-29T19:25:18.877Z,24.77
2018-11-29T19:27:47.497Z,23.43
2018-11-29T19:30:17.627Z,26.52
2018-11-29T19:32:47.943Z,28.83
2018-11-29T19:35:16.668Z,20.97
2018-11-29T19:37:45.256Z,24.70
2018-11-29T19:40:14.797Z,23.77
2018-11-29T19:42:43.140Z,23.93
2018-11-29T19:45:12.856Z,23.00
2018-11-29T19:47:41.233Z,24.90
2018-11-29T19:50:16.730Z,26.48
2018-11-29T19:52:46.351Z,29.53
2018-11-29T19:55:17.144Z,26.67
2018-11-29T19:57:45.537Z,27.87
2018-11-29T20:00:14.144Z,28.45
2018-11-29T20:02:43.492Z,27.27
2018-11-29T20:05:12.412Z,26.82
2018-11-29T20:07:40.774Z,30.90
2018-11-29T20:10:12.463Z,35.03
2018-11-29T20:12:40.932Z,28.20
2018-11-29T20:15:12.314Z,28.92
2018-11-29T20:17:40.789Z,26.87
2018-11-29T20:20:10.490Z,36.58
2018-11-29T20:22:38.948Z,31.93
2018-11-29T20:25:12.660Z,39.00
2018-11-29T20:27:40.994Z,32.60
2018-11-29T20:30:14.508Z,38.35
2018-11-29T20:32:43.012Z,38.93
2018-11-29T20:35:11.992Z,39.53
2018-11-29T20:37:40.468Z,37.63
2018-11-29T20:40:16.673Z,38.93
2018-11-29T20:42:45.754Z,35.67
2018-11-29T20:45:24.368Z,39.77
2018-11-29T20:47:52.942Z,48.47
2018-11-29T20:50:22.952Z,52.60
2018-11-29T20:52:52.369Z,43.20
2018-11-29T20:55:24.491Z,39.03
2018-11-29T20:57:52.808Z,41.93
2018-11-29T21:00:21.290Z,39.30
2018-11-29T21:02:49.706Z,37.93
2018-11-29T21:05:19.161Z,36.37
2018-11-29T21:07:49.333Z,34.87
2018-11-29T21:10:20.915Z,33.63
2018-11-29T21:12:49.430Z,41.57
2018-11-29T21:15:17.716Z,39.75
2018-11-29T21:17:46.134Z,36.87
2018-11-29T21:20:15.795Z,40.75
2018-11-29T21:22:45.547Z,39.40
2018-11-29T21:25:17.962Z,40.00
2018-11-29T21:27:46.425Z,38.93
2018-11-29T21:30:15.523Z,47.88
2018-11-29T21:32:44.137Z,46.18
2018-11-29T21:35:13.866Z,43.60
2018-11-29T21:37:42.480Z,42.53
2018-11-29T21:40:21.936Z,43.78
2018-11-29T21:42:50.463Z,35.60
2018-11-29T21:45:18.860Z,35.92
2018-11-29T21:47:49.411Z,39.87
2018-11-29T21:50:17.833Z,40.77
2018-11-29T21:52:46.227Z,37.50
2018-11-29T21:55:14.703Z,35.50
2018-11-29T21:57:43.076Z,35.92
2018-11-29T22:00:19.205Z,39.13
2018-11-29T22:02:49.090Z,37.37
2018-11-29T22:05:25.294Z,38.67
2018-11-29T22:07:53.593Z,38.93
2018-11-29T22:10:21.955Z,42.13
2018-11-29T22:12:50.308Z,40.08
2018-11-29T22:15:18.589Z,46.77
2018-11-29T22:18:29.576Z,39.33
2018-11-29T22:21:01.186Z,42.83
2018-11-29T22:23:29.832Z,43.27
2018-11-29T22:26:00.091Z,46.83
2018-11-29T22:28:28.799Z,44.20
2018-11-29T22:30:57.141Z,47.58
2018-11-29T22:33:25.531Z,55.13
2018-11-29T22:35:53.807Z,48.90
2018-11-29T22:38:22.169Z,48.67
2018-11-29T22:40:50.473Z,55.63
2018-11-29T22:43:18.840Z,53.68
2018-11-29T22:45:47.176Z,51.77
2018-11-29T22:48:15.594Z,45.03
2018-11-29T22:50:43.947Z,53.37
2018-11-29T22:53:12.360Z,49.43
2018-11-29T22:55:41.021Z,43.30
2018-11-29T22:58:09.196Z,41.33
2018-11-29T23:00:43.651Z,38.63
2018-11-29T23:03:12.617Z,36.80
2018-11-29T23:05:40.945Z,35.80
2018-11-29T23:08:09.245Z,31.93
2018-11-29T23:10:37.511Z,31.12
2018-11-29T23:13:06.608Z,28.90
2018-11-29T23:15:34.993Z,32.97
2018-11-29T23:18:03.264Z,23.75
2018-11-29T23:20:31.540Z,24.67
2018-11-29T23:23:00.205Z,22.87
2018-11-29T23:25:28.751Z,26.10
2018-11-29T23:28:02.822Z,22.10
2018-11-29T23:30:36.582Z,19.73
2018-11-29T23:33:05.975Z,18.70
2018-11-29T23:35:34.311Z,18.85
2018-11-29T23:38:09.072Z,15.77
2018-11-29T23:40:40.969Z,10.77
2018-11-29T23:43:09.358Z,11.17
2018-11-29T23:45:37.772Z,11.00
2018-11-29T23:48:06.117Z,11.50
2018-11-29T23:50:34.610Z,12.07
2018-11-29T23:53:02.892Z,13.63
2018-11-29T23:55:33.218Z,11.47
2018-11-29T23:58:12.323Z,13.10
